createdAt,value
2023-01-04T00:01:00.601Z,101386.00
2023-01-04T00:03:28.076Z,101377.00
2023-01-04T00:05:57.336Z,101380.00
2023-01-04T00:08:24.631Z,101381.00
2023-01-04T00:10:51.930Z,101384.00
2023-01-04T00:13:19.826Z,101376.00
2023-01-04T00:15:47.123Z,101369.00
2023-01-04T00:18:14.439Z,101361.00
2023-01-04T00:20:41.802Z,101358.00
2023-01-04T00:23:09.001Z,101367.00
2023-01-04T00:25:38.879Z,101362.00
2023-01-04T00:28:06.265Z,101366.00
2023-01-04T00:30:34.186Z,101359.00
2023-01-04T00:33:01.451Z,101370.00
2023-01-04T00:35:45.394Z,101350.00
2023-01-04T00:38:13.287Z,101340.00
2023-01-04T00:40:40.553Z,101343.00
2023-01-04T00:43:07.778Z,101344.00
2023-01-04T00:45:35.707Z,101346.00
2023-01-04T00:48:03.148Z,101334.00
2023-01-04T00:50:30.448Z,101330.00
2023-01-04T00:52:57.633Z,101340.00
2023-01-04T00:55:24.905Z,101329.00
2023-01-04T00:57:52.140Z,101326.00
2023-01-04T01:00:19.608Z,101326.00
2023-01-04T01:02:47.793Z,101319.00
2023-01-04T01:05:15.689Z,101305.00
2023-01-04T01:07:42.944Z,101299.00
2023-01-04T01:10:10.379Z,101300.00
2023-01-04T01:12:37.696Z,101312.00
2023-01-04T01:15:05.983Z,101314.00
2023-01-04T01:17:35.558Z,101306.00
2023-01-04T01:20:05.171Z,101303.00
2023-01-04T01:22:34.810Z,101303.00
2023-01-04T01:25:02.029Z,101310.00
2023-01-04T01:27:29.366Z,101310.00
2023-01-04T01:29:56.595Z,101306.00
2023-01-04T01:32:23.957Z,101293.00
2023-01-04T01:34:51.235Z,101290.00
2023-01-04T01:37:19.174Z,101294.00
2023-01-04T01:39:46.390Z,101285.00
2023-01-04T01:42:22.184Z,101288.00
2023-01-04T01:45:01.246Z,101283.00
2023-01-04T01:47:37.435Z,101283.00
2023-01-04T01:50:15.320Z,101272.00
2023-01-04T01:52:50.323Z,101266.00
2023-01-04T01:55:17.737Z,101268.00
2023-01-04T01:57:48.499Z,101272.00
2023-01-04T02:00:16.900Z,101271.00
2023-01-04T02:02:53.675Z,101271.00
2023-01-04T02:05:21.623Z,101260.00
2023-01-04T02:07:51.625Z,101262.00
2023-01-04T02:10:19.173Z,101257.00
2023-01-04T02:12:47.174Z,101259.00
2023-01-04T02:15:14.579Z,101252.00
2023-01-04T02:17:48.760Z,101255.00
2023-01-04T02:20:39.914Z,101235.00
2023-01-04T02:23:59.968Z,101234.00
2023-01-04T02:27:18.163Z,101218.00
2023-01-04T02:30:28.047Z,101218.00
2023-01-04T02:33:09.582Z,101211.00
2023-01-04T02:35:45.164Z,101210.00
2023-01-04T02:38:21.777Z,101195.00
2023-01-04T02:40:56.398Z,101198.00
2023-01-04T02:43:49.451Z,101186.00
2023-01-04T02:46:22.050Z,101189.00
2023-01-04T02:49:08.021Z,101187.00
2023-01-04T02:51:36.991Z,101186.00
2023-01-04T02:54:06.990Z,101185.00
2023-01-04T02:56:51.380Z,101189.00
2023-01-04T02:59:37.907Z,101182.00
2023-01-04T03:02:38.663Z,101167.00
2023-01-04T03:05:33.262Z,101162.00
2023-01-04T03:08:10.289Z,101158.00
2023-01-04T03:10:41.784Z,101153.00
2023-01-04T03:13:15.140Z,101145.00
2023-01-04T03:15:45.764Z,101144.00
2023-01-04T03:18:18.011Z,101142.00
2023-01-04T03:20:48.478Z,101128.00
2023-01-04T03:23:39.430Z,101127.00
2023-01-04T03:26:28.783Z,101115.00
2023-01-04T03:29:17.036Z,101119.00
2023-01-04T03:32:07.088Z,101105.00
2023-01-04T03:34:52.788Z,101108.00
2023-01-04T03:37:25.389Z,101109.00
2023-01-04T03:40:25.418Z,101103.00
2023-01-04T03:43:19.041Z,101100.00
2023-01-04T03:46:08.605Z,101091.00
2023-01-04T03:48:43.015Z,101077.00
2023-01-04T03:51:14.178Z,101060.00
2023-01-04T03:53:50.975Z,101054.00
2023-01-04T03:56:21.663Z,101051.00
2023-01-04T03:58:49.657Z,101056.00
2023-01-04T04:01:19.566Z,101056.00
2023-01-04T04:04:05.171Z,101057.00
2023-01-04T04:06:50.761Z,101051.00
2023-01-04T04:09:18.914Z,101049.00
2023-01-04T04:11:46.324Z,101048.00
2023-01-04T04:14:13.591Z,101040.00
2023-01-04T04:16:41.109Z,101036.00
2023-01-04T04:19:09.145Z,101021.00
2023-01-04T04:21:36.630Z,101025.00
2023-01-04T04:24:04.796Z,101013.00
2023-01-04T04:26:32.814Z,101010.00
2023-01-04T04:29:00.100Z,101010.00
2023-01-04T04:31:27.425Z,101018.00
2023-01-04T04:33:54.745Z,101001.00
2023-01-04T04:36:27.816Z,101012.00
2023-01-04T04:38:55.076Z,100996.00
2023-01-04T04:41:40.606Z,100991.00
2023-01-04T04:44:10.551Z,101002.00
2023-01-04T04:46:37.874Z,100991.00
2023-01-04T04:49:05.720Z,100989.00
2023-01-04T04:51:33.240Z,100994.00
2023-01-04T04:54:01.070Z,100986.00
2023-01-04T04:56:28.339Z,100991.00
2023-01-04T04:58:55.863Z,100992.00
2023-01-04T05:01:24.556Z,100975.00
2023-01-04T05:03:52.101Z,100979.00
2023-01-04T05:06:19.684Z,100979.00
2023-01-04T05:08:47.005Z,100967.00
2023-01-04T05:11:14.706Z,100966.00
2023-01-04T05:13:41.989Z,100960.00
2023-01-04T05:16:10.189Z,100956.00
2023-01-04T05:18:38.211Z,100949.00
2023-01-04T05:21:05.590Z,100944.00
2023-01-04T05:23:32.857Z,100934.00
2023-01-04T05:26:01.343Z,100932.00
2023-01-04T05:28:29.001Z,100922.00
2023-01-04T05:30:56.488Z,100912.00
2023-01-04T05:33:25.333Z,100912.00
2023-01-04T05:35:54.426Z,100905.00
2023-01-04T05:38:22.479Z,100901.00
2023-01-04T05:40:50.556Z,100901.00
2023-01-04T05:43:18.863Z,100899.00
2023-01-04T05:45:48.747Z,100892.00
2023-01-04T05:48:16.202Z,100878.00
2023-01-04T05:50:45.026Z,100872.00
2023-01-04T05:53:13.927Z,100864.00
2023-01-04T05:55:41.290Z,100869.00
2023-01-04T05:58:08.764Z,100870.00
2023-01-04T06:00:36.008Z,100862.00
2023-01-04T06:03:03.527Z,100853.00
2023-01-04T06:05:31.013Z,100844.00
2023-01-04T06:07:58.241Z,100849.00
2023-01-04T06:10:26.177Z,100839.00
2023-01-04T06:12:53.434Z,100834.00
2023-01-04T06:15:20.727Z,100843.00
2023-01-04T06:17:48.007Z,100839.00
2023-01-04T06:20:15.260Z,100836.00
2023-01-04T06:22:42.756Z,100822.00
2023-01-04T06:25:10.470Z,100820.00
2023-01-04T06:27:38.432Z,100812.00
2023-01-04T06:30:06.589Z,100811.00
2023-01-04T06:32:33.847Z,100812.00
2023-01-04T06:35:01.317Z,100807.00
2023-01-04T06:37:28.616Z,100805.00
2023-01-04T06:39:55.915Z,100805.00
2023-01-04T06:42:41.037Z,100805.00
2023-01-04T06:45:10.032Z,100799.00
2023-01-04T06:47:37.325Z,100797.00
2023-01-04T06:50:05.201Z,100795.00
2023-01-04T06:52:32.429Z,100796.00
2023-01-04T06:54:59.740Z,100783.00
2023-01-04T06:57:27.352Z,100771.00
2023-01-04T06:59:54.593Z,100778.00
2023-01-04T07:02:22.924Z,100779.00
2023-01-04T07:04:50.350Z,100776.00
2023-01-04T07:07:17.691Z,100776.00
2023-01-04T07:09:44.952Z,100775.00
2023-01-04T07:12:12.278Z,100781.00
2023-01-04T07:14:39.729Z,100789.00
2023-01-04T07:17:07.127Z,100774.00
2023-01-04T07:19:35.022Z,100774.00
2023-01-04T07:22:02.298Z,100759.00
2023-01-04T07:24:30.614Z,100752.00
2023-01-04T07:27:00.245Z,100754.00
2023-01-04T07:29:28.056Z,100747.00
2023-01-04T07:31:56.130Z,100740.00
2023-01-04T07:34:24.987Z,100736.00
2023-01-04T07:36:57.718Z,100745.00
2023-01-04T07:39:25.131Z,100745.00
2023-01-04T07:41:52.651Z,100756.00
2023-01-04T07:44:20.918Z,100761.00
2023-01-04T07:46:48.559Z,100757.00
2023-01-04T07:49:18.319Z,100756.00
2023-01-04T07:51:47.107Z,100753.00
2023-01-04T07:54:15.581Z,100746.00
2023-01-04T07:56:42.940Z,100743.00
2023-01-04T07:59:11.781Z,100752.00
2023-01-04T08:01:39.642Z,100730.00
2023-01-04T08:04:09.078Z,100735.00
2023-01-04T08:06:37.258Z,100732.00
2023-01-04T08:09:05.615Z,100726.00
2023-01-04T08:11:33.848Z,100717.00
2023-01-04T08:14:01.611Z,100704.00
2023-01-04T08:16:31.187Z,100686.00
2023-01-04T08:19:00.318Z,100691.00
2023-01-04T08:21:29.318Z,100679.00
2023-01-04T08:23:56.584Z,100665.00
2023-01-04T08:26:23.895Z,100665.00
2023-01-04T08:28:52.471Z,100659.00
2023-01-04T08:31:21.690Z,100657.00
2023-01-04T08:33:50.028Z,100662.00
2023-01-04T08:36:26.276Z,100650.00
2023-01-04T08:38:59.908Z,100647.00
2023-01-04T08:44:17.181Z,100639.00
2023-01-04T08:46:44.627Z,100639.00
2023-01-04T08:49:12.229Z,100641.00
2023-01-04T08:51:39.596Z,100640.00
2023-01-04T08:54:08.391Z,100634.00
2023-01-04T08:56:35.847Z,100638.00
2023-01-04T08:59:03.515Z,100633.00
2023-01-04T09:01:32.754Z,100620.00
2023-01-04T09:04:00.670Z,100616.00
2023-01-04T09:06:28.305Z,100627.00
2023-01-04T09:08:57.360Z,100614.00
2023-01-04T09:11:25.744Z,100614.00
2023-01-04T09:13:59.585Z,100604.00
2023-01-04T09:16:32.413Z,100609.00
2023-01-04T09:18:59.725Z,100609.00
2023-01-04T09:21:27.120Z,100593.00
2023-01-04T09:23:56.188Z,100599.00
2023-01-04T09:26:24.315Z,100600.00
2023-01-04T09:28:53.648Z,100598.00
2023-01-04T09:31:22.775Z,100576.00
2023-01-04T09:36:38.584Z,100547.00
2023-01-04T09:39:05.967Z,100569.00
2023-01-04T09:41:46.127Z,100577.00
2023-01-04T09:44:20.509Z,100600.00
2023-01-04T09:46:52.953Z,100612.00
2023-01-04T09:49:23.843Z,100589.00
2023-01-04T09:52:00.440Z,100572.00
2023-01-04T09:54:32.645Z,100564.00
2023-01-04T09:57:00.563Z,100553.00
2023-01-04T09:59:31.346Z,100546.00
2023-01-04T10:02:03.221Z,100528.00
2023-01-04T10:04:41.357Z,100508.00
2023-01-04T10:07:17.461Z,100512.00
2023-01-04T10:09:44.901Z,100514.00
2023-01-04T10:12:22.834Z,100505.00
2023-01-04T10:14:58.472Z,100507.00
2023-01-04T10:18:52.113Z,100523.00
2023-01-04T10:23:52.066Z,100489.00
2023-01-04T10:26:24.898Z,100494.00
2023-01-04T10:29:18.540Z,100495.00
2023-01-04T10:31:48.845Z,100496.00
2023-01-04T10:34:23.625Z,100482.00
2023-01-04T10:36:56.465Z,100479.00
2023-01-04T10:39:32.358Z,100483.00
2023-01-04T10:42:07.401Z,100473.00
2023-01-04T10:44:42.362Z,100466.00
2023-01-04T10:47:15.250Z,100469.00
2023-01-04T10:49:47.895Z,100474.00
2023-01-04T10:52:20.548Z,100465.00
2023-01-04T10:54:52.559Z,100452.00
2023-01-04T10:57:24.714Z,100449.00
2023-01-04T10:59:56.677Z,100464.00
2023-01-04T11:02:28.837Z,100437.00
2023-01-04T11:05:02.713Z,100446.00
2023-01-04T11:07:40.057Z,100430.00
2023-01-04T11:10:13.930Z,100450.00
2023-01-04T11:12:41.777Z,100439.00
2023-01-04T11:15:10.268Z,100432.00
2023-01-04T11:17:38.199Z,100415.00
2023-01-04T11:20:06.792Z,100422.00
2023-01-04T11:22:40.970Z,100421.00
2023-01-04T11:28:06.195Z,100440.00
2023-01-04T11:30:54.780Z,100432.00
2023-01-04T11:33:23.885Z,100421.00
2023-01-04T11:35:52.589Z,100413.00
2023-01-04T11:38:22.490Z,100404.00
2023-01-04T11:40:58.985Z,100399.00
2023-01-04T11:43:28.105Z,100393.00
2023-01-04T11:46:06.737Z,100388.00
2023-01-04T11:48:41.040Z,100390.00
2023-01-04T11:51:19.026Z,100378.00
2023-01-04T11:53:56.794Z,100381.00
2023-01-04T11:56:25.639Z,100382.00
2023-01-04T11:59:11.942Z,100381.00
2023-01-04T12:01:41.606Z,100392.00
2023-01-04T12:04:15.160Z,100382.00
2023-01-04T12:06:48.240Z,100380.00
2023-01-04T12:09:18.534Z,100357.00
2023-01-04T12:11:50.403Z,100358.00
2023-01-04T12:14:23.655Z,100345.00
2023-01-04T12:17:00.428Z,100331.00
2023-01-04T12:19:27.933Z,100332.00
2023-01-04T12:21:59.431Z,100320.00
2023-01-04T12:24:30.857Z,100326.00
2023-01-04T12:26:59.464Z,100325.00
2023-01-04T12:29:43.491Z,100323.00
2023-01-04T12:32:41.243Z,100315.00
2023-01-04T12:36:03.343Z,100302.00
2023-01-04T12:39:28.331Z,100298.00
2023-01-04T12:42:26.333Z,100283.00
2023-01-04T12:45:15.310Z,100270.00
2023-01-04T12:48:06.724Z,100265.00
2023-01-04T12:51:37.313Z,100267.00
2023-01-04T12:54:23.797Z,100265.00
2023-01-04T12:57:29.492Z,100255.00
2023-01-04T13:00:00.760Z,100251.00
2023-01-04T13:02:29.932Z,100236.00
2023-01-04T13:05:43.619Z,100232.00
2023-01-04T13:07:49.024Z,100233.00
2023-01-04T13:10:28.713Z,100225.00
2023-01-04T13:13:06.676Z,100228.00
2023-01-04T13:15:45.774Z,100227.00
2023-01-04T13:18:33.688Z,100229.00
2023-01-04T13:21:03.214Z,100226.00
2023-01-04T13:23:31.397Z,100233.00
2023-01-04T13:26:45.224Z,100215.00
2023-01-04T13:29:19.808Z,100189.00
2023-01-04T13:31:53.914Z,100197.00
2023-01-04T13:34:24.759Z,100184.00
2023-01-04T13:37:16.505Z,100177.00
2023-01-04T13:39:46.188Z,100184.00
2023-01-04T13:42:23.168Z,100166.00
2023-01-04T13:45:28.967Z,100150.00
2023-01-04T13:48:00.217Z,100174.00
2023-01-04T13:50:32.099Z,100171.00
2023-01-04T13:53:07.586Z,100182.00
2023-01-04T13:55:37.371Z,100181.00
2023-01-04T13:58:06.315Z,100175.00
2023-01-04T14:00:48.335Z,100177.00
2023-01-04T14:03:25.824Z,100166.00
2023-01-04T14:05:58.746Z,100162.00
2023-01-04T14:08:34.686Z,100166.00
2023-01-04T14:11:02.685Z,100153.00
2023-01-04T14:13:30.253Z,100144.00
2023-01-04T14:16:10.678Z,100146.00
2023-01-04T14:18:38.437Z,100149.00
2023-01-04T14:21:13.863Z,100146.00
2023-01-04T14:23:41.354Z,100139.00
2023-01-04T14:26:28.463Z,100125.00
2023-01-04T14:28:55.851Z,100141.00
2023-01-04T14:31:36.087Z,100151.00
2023-01-04T14:34:07.920Z,100164.00
2023-01-04T14:36:37.988Z,100146.00
2023-01-04T14:39:30.431Z,100157.00
2023-01-04T14:41:59.348Z,100161.00
2023-01-04T14:44:30.130Z,100161.00
2023-01-04T14:46:59.969Z,100168.00
2023-01-04T14:49:27.831Z,100171.00
2023-01-04T14:51:57.291Z,100175.00
2023-01-04T14:54:26.078Z,100171.00
2023-01-04T14:56:54.168Z,100155.00
2023-01-04T14:59:23.090Z,100153.00
2023-01-04T15:01:51.095Z,100151.00
2023-01-04T15:04:19.404Z,100166.00
2023-01-04T15:06:52.094Z,100144.00
2023-01-04T15:09:19.513Z,100134.00
2023-01-04T15:11:47.000Z,100127.00
2023-01-04T15:14:14.363Z,100134.00
2023-01-04T15:16:41.876Z,100138.00
2023-01-04T15:19:09.535Z,100124.00
2023-01-04T15:21:41.233Z,100131.00
2023-01-04T15:24:09.337Z,100115.00
2023-01-04T15:26:37.272Z,100125.00
2023-01-04T15:29:06.047Z,100116.00
2023-01-04T15:31:38.825Z,100118.00
2023-01-04T15:34:07.987Z,100111.00
2023-01-04T15:36:37.779Z,100114.00
2023-01-04T15:39:06.388Z,100113.00
2023-01-04T15:41:52.368Z,100109.00
2023-01-04T15:44:19.718Z,100106.00
2023-01-04T15:46:47.165Z,100108.00
2023-01-04T15:49:17.612Z,100111.00
2023-01-04T15:51:45.795Z,100096.00
2023-01-04T15:54:14.125Z,100092.00
2023-01-04T15:56:41.484Z,100096.00
2023-01-04T15:59:08.783Z,100090.00
2023-01-04T16:01:36.308Z,100074.00
2023-01-04T16:04:06.235Z,100088.00
2023-01-04T16:06:33.608Z,100090.00
2023-01-04T16:09:01.297Z,100061.00
2023-01-04T16:11:29.640Z,100076.00
2023-01-04T16:13:57.309Z,100064.00
2023-01-04T16:16:27.158Z,100055.00
2023-01-04T16:18:55.874Z,100043.00
2023-01-04T16:21:25.290Z,100043.00
2023-01-04T16:23:58.382Z,100058.00
2023-01-04T16:26:30.102Z,100064.00
2023-01-04T16:28:57.393Z,100055.00
2023-01-04T16:31:24.821Z,100029.00
2023-01-04T16:33:52.884Z,100028.00
2023-01-04T16:36:20.289Z,100017.00
2023-01-04T16:38:47.643Z,100014.00
2023-01-04T16:41:16.467Z,100020.00
2023-01-04T16:43:46.581Z,100027.00
2023-01-04T16:46:22.869Z,100042.00
2023-01-04T16:48:52.160Z,100005.00
2023-01-04T16:51:20.238Z,100029.00
2023-01-04T16:53:47.802Z,100014.00
2023-01-04T16:56:16.673Z,100020.00
2023-01-04T16:58:44.993Z,100018.00
2023-01-04T17:01:15.028Z,100026.00
2023-01-04T17:03:43.391Z,100023.00
2023-01-04T17:06:13.318Z,100017.00
2023-01-04T17:08:40.724Z,99968.00
2023-01-04T17:11:51.202Z,100018.00
2023-01-04T17:13:58.310Z,99977.00
2023-01-04T17:16:30.977Z,100005.00
2023-01-04T17:19:01.684Z,100012.00
2023-01-04T17:21:34.572Z,100014.00
2023-01-04T17:24:02.387Z,100014.00
2023-01-04T17:26:31.694Z,100013.00
2023-01-04T17:29:01.191Z,99999.00
2023-01-04T17:31:30.617Z,100008.00
2023-01-04T17:33:58.083Z,100015.00
2023-01-04T17:36:25.453Z,99999.00
2023-01-04T17:38:53.039Z,100005.00
2023-01-04T17:41:22.604Z,99992.00
2023-01-04T17:43:51.329Z,99989.00
2023-01-04T17:46:23.353Z,99989.00
2023-01-04T17:48:58.981Z,99978.00
2023-01-04T17:51:39.448Z,99969.00
2023-01-04T17:54:10.197Z,99958.00
2023-01-04T17:56:37.559Z,99951.00
2023-01-04T17:59:06.349Z,99952.00
2023-01-04T18:01:35.446Z,99953.00
2023-01-04T18:04:03.655Z,99960.00
2023-01-04T18:06:34.527Z,99965.00
2023-01-04T18:09:03.709Z,99955.00
2023-01-04T18:11:31.270Z,99949.00
2023-01-04T18:13:58.912Z,99951.00
2023-01-04T18:16:28.796Z,99948.00
2023-01-04T18:18:58.442Z,99942.00
2023-01-04T18:21:29.832Z,99945.00
2023-01-04T18:29:33.639Z,99936.00
2023-01-04T18:32:31.740Z,99942.00
2023-01-04T18:35:04.558Z,99930.00
2023-01-04T18:37:32.127Z,99921.00
2023-01-04T18:39:59.856Z,99930.00
2023-01-04T18:42:27.823Z,99938.00
2023-01-04T18:44:55.972Z,99918.00
2023-01-04T18:47:24.310Z,99916.00
2023-01-04T18:49:52.071Z,99920.00
2023-01-04T18:52:21.707Z,99915.00
2023-01-04T18:54:49.174Z,99906.00
2023-01-04T18:57:19.802Z,99884.00
2023-01-04T18:59:49.659Z,99883.00
2023-01-04T19:02:18.920Z,99881.00
2023-01-04T19:04:46.975Z,99877.00
2023-01-04T19:07:14.408Z,99873.00
2023-01-04T19:09:43.627Z,99875.00
2023-01-04T19:12:11.590Z,99874.00
2023-01-04T19:14:40.292Z,99875.00
2023-01-04T19:17:08.214Z,99876.00
2023-01-04T19:19:36.798Z,99851.00
2023-01-04T19:22:04.566Z,99868.00
2023-01-04T19:24:32.791Z,99865.00
2023-01-04T19:27:04.509Z,99863.00
2023-01-04T19:29:33.374Z,99851.00
2023-01-04T19:32:00.852Z,99852.00
2023-01-04T19:34:28.339Z,99851.00
2023-01-04T19:36:55.750Z,99848.00
2023-01-04T19:39:23.304Z,99852.00
2023-01-04T19:41:50.866Z,99867.00
2023-01-04T19:44:19.500Z,99861.00
2023-01-04T19:46:46.918Z,99854.00
2023-01-04T19:49:15.387Z,99856.00
2023-01-04T19:51:44.482Z,99873.00
2023-01-04T19:54:12.495Z,99872.00
2023-01-04T19:56:40.309Z,99857.00
2023-01-04T19:59:07.782Z,99856.00
2023-01-04T20:01:36.120Z,99868.00
2023-01-04T20:04:03.976Z,99879.00
2023-01-04T20:06:32.127Z,99860.00
2023-01-04T20:08:59.772Z,99859.00
2023-01-04T20:11:27.369Z,99853.00
2023-01-04T20:13:54.871Z,99856.00
2023-01-04T20:16:23.719Z,99866.00
2023-01-04T20:18:58.701Z,99871.00
2023-01-04T20:21:26.261Z,99868.00
2023-01-04T20:23:54.064Z,99861.00
2023-01-04T20:26:21.523Z,99858.00
2023-01-04T20:28:49.001Z,99867.00
2023-01-04T20:31:18.287Z,99867.00
2023-01-04T20:33:47.057Z,99892.00
2023-01-04T20:36:17.757Z,99884.00
2023-01-04T20:38:47.052Z,99883.00
2023-01-04T20:41:16.937Z,99881.00
2023-01-04T20:43:45.880Z,99885.00
2023-01-04T20:47:13.594Z,99867.00
2023-01-04T20:49:40.913Z,99860.00
2023-01-04T20:52:08.970Z,99841.00
2023-01-04T20:54:36.353Z,99834.00
2023-01-04T20:57:03.693Z,99826.00
2023-01-04T20:59:31.071Z,99822.00
2023-01-04T21:01:58.488Z,99806.00
2023-01-04T21:04:26.989Z,99804.00
2023-01-04T21:06:54.243Z,99796.00
2023-01-04T21:09:22.223Z,99793.00
2023-01-04T21:11:49.543Z,99784.00
2023-01-04T21:14:16.853Z,99793.00
2023-01-04T21:16:44.636Z,99793.00
2023-01-04T21:19:11.962Z,99787.00
2023-01-04T21:21:39.379Z,99774.00
2023-01-04T21:24:07.311Z,99781.00
2023-01-04T21:26:35.211Z,99782.00
2023-01-04T21:29:02.632Z,99778.00
2023-01-04T21:31:29.986Z,99793.00
2023-01-04T21:33:57.314Z,99769.00
2023-01-04T21:36:26.617Z,99758.00
2023-01-04T21:38:55.308Z,99777.00
2023-01-04T21:41:24.001Z,99773.00
2023-01-04T21:43:53.461Z,99779.00
2023-01-04T21:46:20.818Z,99764.00
2023-01-04T21:48:48.122Z,99766.00
2023-01-04T21:51:15.768Z,99775.00
2023-01-04T21:53:43.115Z,99765.00
2023-01-04T21:56:12.898Z,99771.00
2023-01-04T21:58:40.209Z,99772.00
2023-01-04T22:01:11.972Z,99767.00
2023-01-04T22:03:39.615Z,99755.00
2023-01-04T22:06:07.814Z,99753.00
2023-01-04T22:08:35.493Z,99746.00
2023-01-04T22:11:04.081Z,99744.00
2023-01-04T22:13:31.717Z,99742.00
2023-01-04T22:15:59.093Z,99729.00
2023-01-04T22:18:27.314Z,99752.00
2023-01-04T22:21:02.450Z,99744.00
2023-01-04T22:23:32.807Z,99723.00
2023-01-04T22:26:04.924Z,99717.00
2023-01-04T22:28:36.701Z,99729.00
2023-01-04T22:31:05.682Z,99721.00
2023-01-04T22:33:34.213Z,99736.00
2023-01-04T22:36:04.801Z,99741.00
2023-01-04T22:38:34.689Z,99734.00
2023-01-04T22:41:06.273Z,99730.00
2023-01-04T22:43:34.062Z,99730.00
2023-01-04T22:46:02.564Z,99730.00
2023-01-04T22:48:29.955Z,99723.00
2023-01-04T22:50:57.915Z,99715.00
2023-01-04T22:53:25.435Z,99717.00
2023-01-04T22:58:39.948Z,99723.00
2023-01-04T23:01:08.703Z,99723.00
2023-01-04T23:03:37.561Z,99719.00
2023-01-04T23:06:06.856Z,99735.00
2023-01-04T23:08:34.203Z,99742.00
2023-01-04T23:11:05.453Z,99742.00
2023-01-04T23:13:32.707Z,99755.00
2023-01-04T23:16:04.980Z,99757.00
2023-01-04T23:18:32.384Z,99761.00
2023-01-04T23:20:59.671Z,99747.00
2023-01-04T23:23:27.787Z,99751.00
2023-01-04T23:25:55.240Z,99739.00
2023-01-04T23:28:23.337Z,99746.00
2023-01-04T23:30:50.761Z,99757.00
2023-01-04T23:33:17.992Z,99750.00
2023-01-04T23:35:45.216Z,99749.00
2023-01-04T23:38:12.457Z,99745.00
2023-01-04T23:40:46.186Z,99731.00
2023-01-04T23:43:13.396Z,99734.00
2023-01-04T23:45:40.665Z,99713.00
2023-01-04T23:48:07.892Z,99720.00
2023-01-04T23:50:35.137Z,99710.00
2023-01-04T23:53:02.386Z,99708.00
2023-01-04T23:55:29.634Z,99705.00
2023-01-04T23:57:57.712Z,99730.00
